Time;durP1;ratioP1;P1;durP2;ratioP2;P2;SDS_P1;SDS_P2;PMS_P1;PMS_P2;Temp;Humidity;BMP_temperature;BMP_pressure;BME280_temperature;BME280_humidity;BME280_pressure;Samples;Min_cycle;Max_cycle;Signal;HPM_P1;HPM_P2
2021/09/22 00:00:54;;;;;;;6.68;4.05;;;16.00;62.60;;;;;;4950998;29;20031;-81
2021/09/22 00:03:19;;;;;;;5.10;3.58;;;16.00;63.20;;;;;;4943690;29;20031;-81
2021/09/22 00:05:45;;;;;;;6.35;4.32;;;16.00;63.50;;;;;;4954802;29;20038;-81
2021/09/22 00:08:10;;;;;;;6.40;4.28;;;16.00;63.10;;;;;;4955526;29;20492;-81
2021/09/22 00:10:36;;;;;;;5.00;3.97;;;16.10;63.70;;;;;;4954424;29;20511;-82
2021/09/22 00:13:02;;;;;;;5.68;3.92;;;16.00;63.40;;;;;;4954856;29;20031;-81
2021/09/22 00:15:28;;;;;;;5.00;3.70;;;16.00;63.60;;;;;;4954622;29;20489;-81
2021/09/22 00:17:54;;;;;;;6.70;4.82;;;16.00;63.80;;;;;;4954670;29;20066;-82
2021/09/22 00:20:24;;;;;;;5.97;4.43;;;16.00;63.70;;;;;;4937912;29;20019;-82
2021/09/22 00:22:52;;;;;;;7.75;4.72;;;16.00;63.70;;;;;;4954463;29;20074;-82
2021/09/22 00:25:18;;;;;;;7.95;4.72;;;16.00;63.70;;;;;;4954184;29;20082;-82
2021/09/22 00:27:43;;;;;;;6.22;4.15;;;16.00;64.00;;;;;;4954472;29;20039;-80
2021/09/22 00:30:11;;;;;;;6.30;4.22;;;15.90;63.80;;;;;;4954412;29;20027;-83
2021/09/22 00:32:37;;;;;;;6.18;4.45;;;15.90;63.90;;;;;;4954614;29;20045;-82
2021/09/22 00:35:03;;;;;;;5.82;4.00;;;15.90;63.90;;;;;;4954587;29;20043;-82
2021/09/22 00:37:29;;;;;;;5.30;4.18;;;15.80;63.80;;;;;;4936964;29;20500;-82
2021/09/22 00:39:54;;;;;;;7.25;4.65;;;15.80;64.00;;;;;;4953861;29;20074;-82
2021/09/22 00:42:20;;;;;;;5.70;4.60;;;15.90;64.00;;;;;;4954350;29;20039;-82
2021/09/22 00:44:51;;;;;;;5.93;4.47;;;15.80;63.80;;;;;;4954241;29;20441;-82
2021/09/22 00:47:17;;;;;;;6.50;4.25;;;15.90;65.40;;;;;;4954784;29;20019;-82
2021/09/22 00:49:43;;;;;;;5.70;4.40;;;15.80;64.00;;;;;;4954066;29;20090;-81
2021/09/22 00:52:11;;;;;;;5.97;4.20;;;15.80;63.90;;;;;;4954018;29;20027;-81
2021/09/22 00:54:38;;;;;;;6.50;4.88;;;15.70;64.30;;;;;;4936586;29;20506;-81
2021/09/22 00:57:04;;;;;;;7.10;4.63;;;15.70;64.00;;;;;;4954122;29;20039;-81
2021/09/22 00:59:30;;;;;;;6.30;4.53;;;15.70;64.40;;;;;;4954130;29;20058;-81
2021/09/22 01:01:58;;;;;;;5.32;4.47;;;15.70;64.30;;;;;;4954062;28;20031;-81
2021/09/22 01:04:24;;;;;;;5.82;4.60;;;15.70;64.20;;;;;;4953809;29;20028;-80
2021/09/22 01:06:50;;;;;;;7.85;4.90;;;15.70;64.40;;;;;;4953963;29;20514;-81
2021/09/22 01:09:16;;;;;;;6.28;4.65;;;15.70;64.80;;;;;;4953503;29;20038;-81
2021/09/22 01:11:42;;;;;;;6.32;4.70;;;15.70;64.50;;;;;;4954052;29;20038;-81
2021/09/22 01:14:08;;;;;;;6.25;4.82;;;15.70;64.40;;;;;;4954564;29;20381;-81
2021/09/22 01:16:44;;;;;;;7.63;4.63;;;15.60;64.30;;;;;;4953816;29;20032;-80
2021/09/22 01:19:11;;;;;;;6.47;4.88;;;15.60;64.00;;;;;;4953684;29;20114;-80
2021/09/22 01:21:37;;;;;;;6.50;4.72;;;15.60;64.20;;;;;;4953588;29;20057;-80
2021/09/22 01:24:03;;;;;;;6.95;4.55;;;15.60;64.10;;;;;;4953327;29;20479;-81
2021/09/22 01:26:33;;;;;;;6.97;5.20;;;15.60;64.20;;;;;;4953892;29;20055;-80
2021/09/22 01:28:58;;;;;;;7.60;5.50;;;15.50;64.10;;;;;;4954067;29;20486;-80
2021/09/22 01:31:24;;;;;;;7.18;5.32;;;15.50;64.40;;;;;;4953435;29;20039;-80
2021/09/22 01:33:50;;;;;;;6.88;5.32;;;15.40;64.20;;;;;;4953361;29;20078;-81
2021/09/22 01:36:15;;;;;;;7.72;5.18;;;15.40;64.70;;;;;;4953699;29;20440;-81
2021/09/22 01:38:41;;;;;;;6.63;5.07;;;15.40;64.40;;;;;;4953011;29;20138;-81
2021/09/22 01:41:09;;;;;;;8.13;5.75;;;15.40;64.60;;;;;;4954065;29;20016;-81
2021/09/22 01:43:37;;;;;;;7.07;5.28;;;15.30;64.70;;;;;;4953262;29;20074;-81
2021/09/22 01:46:04;;;;;;;8.05;5.28;;;15.30;64.90;;;;;;4953318;29;20019;-81
2021/09/22 01:48:30;;;;;;;7.72;5.53;;;15.30;65.10;;;;;;4936214;29;20404;-79
2021/09/22 01:50:57;;;;;;;9.05;6.10;;;15.30;65.20;;;;;;4953631;29;20035;-79
2021/09/22 01:53:25;;;;;;;6.57;4.95;;;15.30;65.30;;;;;;4953586;29;20515;-82
2021/09/22 01:55:56;;;;;;;7.70;5.07;;;15.20;65.00;;;;;;4953773;29;20037;-82
2021/09/22 01:58:22;;;;;;;8.68;5.53;;;15.20;65.30;;;;;;4953280;29;20035;-81
2021/09/22 02:00:49;;;;;;;8.05;5.68;;;15.20;64.80;;;;;;4953284;29;20020;-81
2021/09/22 02:03:16;;;;;;;8.25;5.38;;;15.20;65.20;;;;;;4953471;29;20090;-81
2021/09/22 02:05:42;;;;;;;10.23;6.18;;;15.20;65.50;;;;;;4953328;29;20623;-82
2021/09/22 02:08:08;;;;;;;6.70;5.20;;;15.20;65.40;;;;;;4953594;29;20046;-79
2021/09/22 02:10:34;;;;;;;6.60;5.38;;;15.20;65.30;;;;;;4953239;29;20031;-81
2021/09/22 02:13:00;;;;;;;6.47;5.15;;;15.20;65.60;;;;;;4954956;28;20047;-81
2021/09/22 02:15:26;;;;;;;8.00;5.70;;;15.10;65.80;;;;;;4947741;29;20027;-81
2021/09/22 02:17:52;;;;;;;6.50;5.22;;;15.20;65.40;;;;;;4956859;29;20094;-80
2021/09/22 02:20:18;;;;;;;7.72;5.65;;;15.20;65.40;;;;;;4957458;29;20476;-80
2021/09/22 02:22:43;;;;;;;8.25;5.80;;;15.20;65.40;;;;;;4956262;29;20114;-81
2021/09/22 02:25:10;;;;;;;7.93;5.65;;;15.20;65.80;;;;;;4956718;29;20038;-81
2021/09/22 02:27:37;;;;;;;9.77;6.20;;;15.20;65.40;;;;;;4956650;29;20094;-80
2021/09/22 02:30:05;;;;;;;8.20;6.05;;;15.20;65.80;;;;;;4956702;29;20031;-80
2021/09/22 02:32:31;;;;;;;8.18;6.43;;;15.10;65.30;;;;;;4956730;29;20069;-81
2021/09/22 02:34:56;;;;;;;8.82;6.03;;;15.10;65.80;;;;;;4956686;29;20555;-81
2021/09/22 02:37:22;;;;;;;9.63;6.05;;;15.00;65.90;;;;;;4956098;29;20071;-80
2021/09/22 02:39:48;;;;;;;8.15;6.13;;;15.00;65.80;;;;;;4956399;29;20043;-80
2021/09/22 02:42:13;;;;;;;7.63;5.55;;;15.00;65.70;;;;;;4956511;29;20050;-80
2021/09/22 02:44:39;;;;;;;7.47;5.80;;;15.00;66.00;;;;;;4956456;29;20039;-81
2021/09/22 02:47:04;;;;;;;7.75;5.72;;;15.00;65.80;;;;;;4939636;29;20086;-81
2021/09/22 02:49:30;;;;;;;10.70;6.60;;;15.00;66.80;;;;;;4956282;29;20039;-81
2021/09/22 02:51:56;;;;;;;9.07;6.40;;;14.90;65.60;;;;;;4955960;29;20043;-80
2021/09/22 02:54:22;;;;;;;8.82;6.20;;;15.00;66.00;;;;;;4956160;29;20074;-81
2021/09/22 02:56:48;;;;;;;8.25;5.93;;;15.00;66.30;;;;;;4956036;29;20039;-81
2021/09/22 02:59:13;;;;;;;10.50;6.85;;;15.00;66.00;;;;;;4956643;29;20114;-81
2021/09/22 03:01:39;;;;;;;8.63;6.13;;;15.00;65.90;;;;;;4955833;29;20690;-81
2021/09/22 03:04:05;;;;;;;9.00;6.28;;;14.90;65.70;;;;;;4956054;29;20038;-80
2021/09/22 03:06:30;;;;;;;9.27;6.10;;;14.90;65.90;;;;;;4955627;29;20143;-80
2021/09/22 03:08:56;;;;;;;8.65;6.30;;;14.90;66.40;;;;;;4956133;29;20496;-80
2021/09/22 03:11:22;;;;;;;9.35;6.20;;;14.90;66.50;;;;;;4956271;29;20075;-80
2021/09/22 03:13:47;;;;;;;9.15;5.93;;;14.90;66.30;;;;;;4956006;29;20032;-80
2021/09/22 03:16:13;;;;;;;9.52;5.90;;;14.80;66.20;;;;;;4955752;29;20035;-80
2021/09/22 03:18:39;;;;;;;7.57;5.45;;;14.80;66.00;;;;;;4955443;29;20039;-79
2021/09/22 03:21:06;;;;;;;7.57;5.75;;;14.80;66.30;;;;;;4955765;29;20115;-80
2021/09/22 03:23:32;;;;;;;8.48;5.50;;;14.80;66.20;;;;;;4938463;29;20037;-80
2021/09/22 03:25:58;;;;;;;8.85;5.63;;;14.70;66.20;;;;;;4938872;29;20052;-81
2021/09/22 03:28:24;;;;;;;7.85;5.68;;;14.70;66.40;;;;;;4955501;29;20031;-81
2021/09/22 03:30:50;;;;;;;8.55;5.38;;;14.70;66.80;;;;;;4955384;29;20469;-80
2021/09/22 03:33:16;;;;;;;7.18;5.43;;;14.60;66.50;;;;;;4955134;29;20455;-80
2021/09/22 03:35:43;;;;;;;8.00;5.82;;;14.50;66.60;;;;;;4955511;29;20039;-80
2021/09/22 03:38:09;;;;;;;9.13;5.78;;;14.50;66.60;;;;;;4956023;29;20046;-81
2021/09/22 03:40:36;;;;;;;8.07;5.70;;;14.40;66.70;;;;;;4955157;29;20102;-80
2021/09/22 03:43:03;;;;;;;8.95;6.03;;;14.40;67.90;;;;;;4955326;29;20034;-81
2021/09/22 03:45:29;;;;;;;8.75;6.55;;;14.40;67.10;;;;;;4955474;29;20126;-81
2021/09/22 03:47:56;;;;;;;8.82;5.90;;;14.40;67.20;;;;;;4955036;29;20030;-81
2021/09/22 03:50:21;;;;;;;9.95;6.57;;;14.30;67.30;;;;;;4955688;29;20547;-81
2021/09/22 03:52:47;;;;;;;7.75;5.85;;;14.30;67.10;;;;;;4955316;29;20031;-81
2021/09/22 03:55:13;;;;;;;8.48;5.75;;;14.30;67.20;;;;;;4955088;29;20035;-80
2021/09/22 03:57:38;;;;;;;8.98;6.00;;;14.30;67.40;;;;;;4954872;29;20050;-80
2021/09/22 04:00:06;;;;;;;7.80;5.68;;;14.30;67.70;;;;;;4954985;29;20102;-80
2021/09/22 04:02:32;;;;;;;8.05;6.00;;;14.30;67.70;;;;;;4953885;29;20038;-81
2021/09/22 04:04:57;;;;;;;9.50;6.15;;;14.20;67.50;;;;;;4954829;29;20050;-80
2021/09/22 04:07:23;;;;;;;8.75;5.65;;;14.20;67.70;;;;;;4954608;29;20031;-80
2021/09/22 04:09:49;;;;;;;10.25;5.75;;;14.10;67.60;;;;;;4954376;29;20026;-80
2021/09/22 04:12:14;;;;;;;8.52;6.28;;;14.10;67.70;;;;;;4954306;29;20067;-80
2021/09/22 04:14:40;;;;;;;9.20;6.05;;;14.10;67.70;;;;;;4954501;29;20452;-80
2021/09/22 04:17:06;;;;;;;9.45;6.03;;;14.00;68.00;;;;;;4937585;29;20117;-80
2021/09/22 04:19:34;;;;;;;9.55;6.00;;;14.00;68.10;;;;;;4953935;29;20028;-80
2021/09/22 04:22:00;;;;;;;8.52;6.30;;;14.10;68.50;;;;;;4954016;29;20113;-80
2021/09/22 04:24:26;;;;;;;10.02;6.30;;;14.10;68.10;;;;;;4954169;29;20027;-80
2021/09/22 04:26:51;;;;;;;9.68;6.25;;;14.00;68.00;;;;;;4954115;29;20114;-80
2021/09/22 04:29:17;;;;;;;7.82;5.88;;;14.00;68.20;;;;;;4954650;29;20034;-80
2021/09/22 04:31:43;;;;;;;7.95;5.90;;;14.00;68.10;;;;;;4953746;29;20031;-80
2021/09/22 04:34:08;;;;;;;7.68;5.88;;;14.00;68.50;;;;;;4953765;29;20039;-81
2021/09/22 04:36:34;;;;;;;8.27;6.20;;;14.00;68.40;;;;;;4953250;28;20078;-80
2021/09/22 04:39:00;;;;;;;9.25;6.63;;;13.90;68.20;;;;;;4953666;29;20035;-80
2021/09/22 04:41:26;;;;;;;11.07;6.32;;;14.00;68.40;;;;;;4954467;29;20015;-80
2021/09/22 04:43:52;;;;;;;9.90;6.32;;;14.00;68.90;;;;;;4957214;29;20465;-80
2021/09/22 04:46:17;;;;;;;9.38;6.18;;;14.00;68.40;;;;;;4953259;29;20066;-81
2021/09/22 04:48:44;;;;;;;10.77;6.70;;;14.00;68.50;;;;;;4953632;29;20121;-80
2021/09/22 04:51:10;;;;;;;8.10;6.13;;;14.00;68.40;;;;;;4953886;29;20027;-80
2021/09/22 04:53:36;;;;;;;8.95;6.03;;;13.90;68.40;;;;;;4953916;29;20062;-79
2021/09/22 04:56:02;;;;;;;9.20;6.18;;;13.80;68.60;;;;;;4954212;29;20030;-79
2021/09/22 04:58:27;;;;;;;10.20;6.75;;;13.80;69.10;;;;;;4953383;29;20047;-79
2021/09/22 05:00:53;;;;;;;10.15;6.72;;;13.80;68.50;;;;;;4952966;29;20027;-80
2021/09/22 05:03:18;;;;;;;11.35;6.28;;;13.80;68.80;;;;;;4953709;29;20551;-81
2021/09/22 05:05:44;;;;;;;9.13;6.53;;;13.80;68.90;;;;;;4953757;29;20050;-81
2021/09/22 05:08:10;;;;;;;12.30;7.40;;;13.70;68.80;;;;;;4954270;29;20055;-78
2021/09/22 05:10:36;;;;;;;11.18;7.47;;;13.70;68.90;;;;;;4952601;29;20129;-79
2021/09/22 05:13:02;;;;;;;10.90;6.68;;;13.70;69.10;;;;;;4950936;29;20496;-80
2021/09/22 05:15:28;;;;;;;11.68;7.03;;;13.70;69.00;;;;;;4952742;29;20027;-78
2021/09/22 05:17:54;;;;;;;10.48;7.55;;;13.70;69.30;;;;;;4953350;29;20632;-80
2021/09/22 05:20:21;;;;;;;11.57;7.40;;;13.70;69.50;;;;;;4936384;29;20106;-80
2021/09/22 05:22:47;;;;;;;10.75;7.75;;;13.70;69.50;;;;;;4935817;29;20031;-80
2021/09/22 05:25:13;;;;;;;11.18;8.32;;;13.70;69.40;;;;;;4953098;29;20503;-80
2021/09/22 05:27:39;;;;;;;10.57;7.60;;;13.70;70.20;;;;;;4953054;29;20393;-79
2021/09/22 05:30:06;;;;;;;12.02;8.43;;;13.70;69.60;;;;;;4952522;29;20041;-81
2021/09/22 05:32:32;;;;;;;11.57;7.57;;;13.60;69.20;;;;;;4953447;29;20481;-82
2021/09/22 05:34:57;;;;;;;12.70;7.75;;;13.60;69.40;;;;;;4953625;29;20051;-81
2021/09/22 05:37:23;;;;;;;10.10;7.47;;;13.60;69.60;;;;;;4952699;29;20035;-82
2021/09/22 05:39:49;;;;;;;11.65;7.65;;;13.50;69.70;;;;;;4953162;29;20030;-82
2021/09/22 05:42:15;;;;;;;12.95;8.57;;;13.50;69.80;;;;;;4951467;29;20035;-81
2021/09/22 05:44:40;;;;;;;11.63;8.05;;;13.50;69.70;;;;;;4951668;29;20078;-79
2021/09/22 05:47:06;;;;;;;13.20;7.95;;;13.50;69.80;;;;;;4936799;29;20039;-78
2021/09/22 05:49:31;;;;;;;12.05;8.20;;;13.50;70.00;;;;;;4937319;29;20568;-79
2021/09/22 05:51:57;;;;;;;11.88;8.02;;;13.40;69.60;;;;;;4951255;29;20026;-79
2021/09/22 05:54:23;;;;;;;13.82;9.00;;;13.40;70.20;;;;;;4949422;29;20054;-79
2021/09/22 05:56:48;;;;;;;12.05;8.00;;;13.50;70.30;;;;;;4930343;29;20492;-78
2021/09/22 05:59:14;;;;;;;13.10;9.35;;;13.50;70.20;;;;;;4946995;29;20495;-79
2021/09/22 06:01:40;;;;;;;12.75;8.80;;;13.50;70.00;;;;;;4948603;29;20055;-78
2021/09/22 06:04:07;;;;;;;11.70;7.75;;;13.50;70.30;;;;;;4943991;29;20407;-80
2021/09/22 06:06:33;;;;;;;11.40;7.82;;;13.40;70.40;;;;;;4946731;29;20028;-78
2021/09/22 06:08:59;;;;;;;13.90;9.00;;;13.50;70.50;;;;;;4950760;29;20587;-80
2021/09/22 06:11:25;;;;;;;12.80;8.70;;;13.60;70.40;;;;;;4946184;29;20027;-79
2021/09/22 06:13:53;;;;;;;13.38;8.88;;;13.60;70.30;;;;;;4945001;29;20039;-79
2021/09/22 06:16:24;;;;;;;14.38;9.05;;;13.60;70.40;;;;;;4930419;29;20396;-80
2021/09/22 06:18:49;;;;;;;12.95;8.98;;;13.60;70.40;;;;;;4949848;29;20031;-80
2021/09/22 06:21:15;;;;;;;14.25;8.57;;;13.70;70.20;;;;;;4945706;29;20035;-80
2021/09/22 06:23:41;;;;;;;12.48;7.97;;;13.70;70.60;;;;;;4948244;29;22781;-80
2021/09/22 06:26:07;;;;;;;14.70;9.32;;;13.80;70.30;;;;;;4946686;29;20020;-80
2021/09/22 06:28:33;;;;;;;16.88;8.95;;;13.90;70.30;;;;;;4948635;29;20162;-80
2021/09/22 06:30:59;;;;;;;12.48;8.13;;;14.00;70.40;;;;;;4947163;29;20023;-79
2021/09/22 06:33:25;;;;;;;12.48;8.70;;;14.10;70.30;;;;;;4947114;29;20064;-79
2021/09/22 06:35:50;;;;;;;15.02;9.73;;;14.20;70.10;;;;;;4930859;29;20049;-81
2021/09/22 06:38:16;;;;;;;12.25;8.68;;;14.20;69.80;;;;;;4945146;29;20039;-81
2021/09/22 06:40:42;;;;;;;13.57;8.85;;;14.20;69.40;;;;;;4947500;29;20523;-80
2021/09/22 06:43:08;;;;;;;12.57;8.45;;;14.30;69.80;;;;;;4946128;29;20038;-81
2021/09/22 06:45:34;;;;;;;13.32;8.70;;;14.50;69.80;;;;;;4947941;29;20028;-76
2021/09/22 06:47:59;;;;;;;14.38;9.57;;;14.60;69.70;;;;;;4947472;29;20031;-74
2021/09/22 06:50:26;;;;;;;13.15;8.85;;;14.80;69.60;;;;;;4930107;29;20079;-75
2021/09/22 06:52:52;;;;;;;14.50;9.43;;;14.90;69.40;;;;;;4946710;29;20039;-74
2021/09/22 06:55:18;;;;;;;11.90;8.13;;;15.10;68.90;;;;;;4947457;29;20023;-60
2021/09/22 06:57:44;;;;;;;16.23;9.35;;;15.20;68.90;;;;;;4947321;28;20051;-72
2021/09/22 07:00:10;;;;;;;13.38;8.93;;;15.30;68.20;;;;;;4945656;29;20066;-72
2021/09/22 07:02:40;;;;;;;12.25;9.10;;;15.40;67.80;;;;;;4952461;29;20031;-73
2021/09/22 07:05:08;;;;;;;11.27;8.50;;;15.50;67.80;;;;;;4948581;29;20027;-73
2021/09/22 07:07:33;;;;;;;11.30;8.40;;;15.70;67.60;;;;;;4947347;29;20043;-73
2021/09/22 07:09:59;;;;;;;13.07;9.07;;;15.80;67.40;;;;;;4946951;29;20433;-73
2021/09/22 07:12:25;;;;;;;14.00;9.55;;;15.90;66.80;;;;;;4944959;29;20023;-72
2021/09/22 07:14:51;;;;;;;11.35;8.88;;;16.10;67.00;;;;;;4947114;29;20468;-72
2021/09/22 07:17:18;;;;;;;12.07;8.50;;;16.20;66.50;;;;;;4939127;29;20044;-74
2021/09/22 07:19:44;;;;;;;12.07;8.35;;;16.30;66.00;;;;;;4893080;29;20032;-74
2021/09/22 07:22:10;;;;;;;11.77;8.30;;;16.40;65.90;;;;;;4911083;29;20543;-67
2021/09/22 07:24:35;;;;;;;11.95;8.65;;;16.60;66.10;;;;;;4933785;29;20039;-62
2021/09/22 07:27:01;;;;;;;13.35;8.75;;;16.70;65.40;;;;;;4931376;29;20031;-61
2021/09/22 07:29:27;;;;;;;12.95;9.60;;;16.80;65.20;;;;;;4934043;29;20577;-62
2021/09/22 07:31:54;;;;;;;12.02;8.90;;;16.80;64.80;;;;;;4924100;29;20087;-63
2021/09/22 07:34:21;;;;;;;12.82;9.00;;;17.10;65.10;;;;;;4921287;29;20047;-62
2021/09/22 07:36:49;;;;;;;11.57;9.23;;;17.20;64.30;;;;;;4953924;29;20041;-62
2021/09/22 07:39:15;;;;;;;13.05;9.23;;;17.20;64.10;;;;;;4942815;29;20480;-61
2021/09/22 07:41:41;;;;;;;13.60;9.02;;;17.40;64.00;;;;;;4954628;29;20658;-62
2021/09/22 07:44:07;;;;;;;13.15;8.93;;;17.50;64.00;;;;;;4955448;29;20065;-62
2021/09/22 07:46:33;;;;;;;14.20;9.02;;;17.70;63.50;;;;;;4955171;29;20035;-61
2021/09/22 07:48:59;;;;;;;12.25;9.15;;;17.90;63.50;;;;;;4954866;29;20082;-61
2021/09/22 07:51:25;;;;;;;12.70;9.00;;;18.00;63.10;;;;;;4954952;29;20042;-61
2021/09/22 07:53:50;;;;;;;11.45;8.68;;;18.20;63.00;;;;;;4955148;29;20110;-62
2021/09/22 07:56:16;;;;;;;11.90;8.75;;;18.40;62.50;;;;;;4955324;29;20098;-61
2021/09/22 07:58:42;;;;;;;13.05;8.88;;;18.50;62.10;;;;;;4954718;29;20521;-62
2021/09/22 08:01:07;;;;;;;12.98;9.00;;;18.50;60.90;;;;;;4954569;29;20023;-80
2021/09/22 08:03:33;;;;;;;13.13;9.07;;;18.60;61.60;;;;;;4954699;29;20027;-80
2021/09/22 08:05:58;;;;;;;11.93;9.20;;;18.90;62.10;;;;;;4954146;29;20120;-80
2021/09/22 08:08:24;;;;;;;12.35;9.65;;;19.10;60.60;;;;;;4955001;29;20106;-85
2021/09/22 08:10:50;;;;;;;12.75;8.85;;;19.00;59.50;;;;;;4953951;28;20385;-73
2021/09/22 08:13:16;;;;;;;11.32;8.45;;;19.20;60.90;;;;;;4954589;29;20032;-74
2021/09/22 08:15:42;;;;;;;11.88;8.85;;;19.50;60.40;;;;;;4954584;29;20043;-80
2021/09/22 08:18:08;;;;;;;12.02;9.20;;;19.50;58.70;;;;;;4954464;29;20035;-79
2021/09/22 08:20:34;;;;;;;12.68;9.63;;;19.80;59.70;;;;;;4954517;29;20038;-79
2021/09/22 08:23:00;;;;;;;11.05;8.82;;;19.70;57.20;;;;;;4955050;29;20074;-79
2021/09/22 08:25:25;;;;;;;12.73;9.75;;;19.80;57.90;;;;;;4945622;29;20030;-78
2021/09/22 08:27:51;;;;;;;12.95;10.70;;;19.90;57.60;;;;;;4943160;29;20067;-80
2021/09/22 08:30:17;;;;;;;12.93;9.45;;;19.70;56.30;;;;;;4942423;29;20500;-78
2021/09/22 08:32:43;;;;;;;11.75;8.70;;;19.60;57.10;;;;;;4954432;29;20030;-79
2021/09/22 08:35:10;;;;;;;12.07;9.38;;;20.10;58.30;;;;;;4954655;29;20098;-80
2021/09/22 08:37:36;;;;;;;13.85;10.18;;;20.20;55.90;;;;;;4936906;29;20039;-79
2021/09/22 08:40:02;;;;;;;13.70;10.07;;;20.40;55.60;;;;;;4953774;29;20027;-78
2021/09/22 08:42:28;;;;;;;11.13;9.27;;;20.40;55.50;;;;;;4954046;29;20082;-79
2021/09/22 08:44:53;;;;;;;11.98;8.90;;;20.70;55.80;;;;;;4954405;29;20432;-79
2021/09/22 08:47:20;;;;;;;10.60;8.60;;;20.90;55.70;;;;;;4954972;29;20027;-79
2021/09/22 08:49:48;;;;;;;11.65;8.82;;;21.20;56.10;;;;;;4936537;29;20424;-79
2021/09/22 08:52:14;;;;;;;10.32;8.13;;;21.60;55.30;;;;;;4953739;29;20050;-79
2021/09/22 08:54:41;;;;;;;10.32;8.43;;;21.80;53.30;;;;;;4953723;29;20413;-79
2021/09/22 08:57:07;;;;;;;11.82;8.70;;;21.90;52.10;;;;;;4954052;29;20016;-79
2021/09/22 08:59:33;;;;;;;10.77;9.05;;;22.10;52.70;;;;;;4954048;29;20035;-79
2021/09/22 09:02:18;;;;;;;9.70;7.72;;;22.20;52.60;;;;;;4954324;29;20369;-79
2021/09/22 09:04:59;;;;;;;9.75;7.07;;;22.70;54.70;;;;;;4953916;29;20034;-79
2021/09/22 09:07:29;;;;;;;9.77;7.63;;;23.30;52.90;;;;;;4953456;29;20035;-79
2021/09/22 09:10:10;;;;;;;8.25;7.35;;;23.60;51.80;;;;;;4953779;29;20128;-79
2021/09/22 09:12:36;;;;;;;11.15;7.65;;;24.00;52.80;;;;;;4953709;29;20094;-79
2021/09/22 09:15:08;;;;;;;9.05;6.85;;;24.40;51.10;;;;;;4953547;29;20031;-79
2021/09/22 09:17:42;;;;;;;8.15;7.13;;;24.70;50.20;;;;;;4952879;29;20038;-80
2021/09/22 09:20:20;;;;;;;9.00;7.15;;;25.00;49.60;;;;;;4934814;29;20050;-79
2021/09/22 09:23:09;;;;;;;8.90;7.18;;;25.10;48.20;;;;;;4952931;28;20098;-80
2021/09/22 09:25:57;;;;;;;8.25;6.60;;;25.20;49.10;;;;;;4943944;29;20035;-79
2021/09/22 09:28:24;;;;;;;9.25;7.07;;;25.30;49.20;;;;;;4950250;29;20035;-79
2021/09/22 09:31:03;;;;;;;11.18;8.10;;;25.50;46.60;;;;;;4953301;29;20102;-79
2021/09/22 09:33:46;;;;;;;9.25;6.65;;;25.60;45.90;;;;;;4953056;29;20106;-80
2021/09/22 09:36:19;;;;;;;;;;;25.60;44.00;;;;;;4953166;29;20054;-79
2021/09/22 09:38:57;;;;;;;7.82;6.60;;;25.70;46.00;;;;;;4936449;29;19968;-79
2021/09/22 09:41:53;;;;;;;6.75;6.03;;;26.00;45.00;;;;;;4950215;29;20028;-79
2021/09/22 09:44:30;;;;;;;7.35;6.03;;;26.10;44.80;;;;;;4946754;29;20035;-80
2021/09/22 09:47:09;;;;;;;8.23;6.20;;;26.80;46.20;;;;;;4953035;29;20122;-81
2021/09/22 09:49:37;;;;;;;11.20;8.38;;;27.10;45.60;;;;;;4952931;29;20031;-81
2021/09/22 09:52:03;;;;;;;8.88;7.28;;;27.10;41.10;;;;;;4952497;29;20011;-80
2021/09/22 09:54:35;;;;;;;8.32;6.75;;;26.90;41.90;;;;;;4953081;29;20081;-81
2021/09/22 09:57:11;;;;;;;7.70;6.65;;;26.90;43.60;;;;;;4935885;29;20043;-82
2021/09/22 09:59:50;;;;;;;7.88;6.50;;;27.10;43.80;;;;;;4953163;29;20078;-81
2021/09/22 10:02:28;;;;;;;7.18;6.47;;;27.90;44.80;;;;;;4954069;29;20089;-80
2021/09/22 10:04:55;;;;;;;5.80;5.10;;;28.50;41.80;;;;;;4951991;29;20062;-80
2021/09/22 10:07:21;;;;;;;7.00;6.35;;;29.00;40.90;;;;;;4953045;29;20027;-81
2021/09/22 10:09:47;;;;;;;6.25;5.65;;;29.10;37.80;;;;;;4952731;29;20086;-80
2021/09/22 10:12:15;;;;;;;8.25;5.53;;;28.80;38.00;;;;;;4952964;29;20118;-79
2021/09/22 10:14:43;;;;;;;6.50;5.80;;;29.20;40.10;;;;;;4952649;29;20038;-80
2021/09/22 10:17:11;;;;;;;6.78;5.55;;;29.40;38.70;;;;;;4936219;29;20035;-80
2021/09/22 10:19:37;;;;;;;6.93;5.72;;;29.10;38.50;;;;;;4952583;29;20031;-80
2021/09/22 10:22:04;;;;;;;8.20;6.00;;;28.70;37.30;;;;;;4952486;29;20491;-79
2021/09/22 10:24:30;;;;;;;6.28;5.13;;;28.30;38.10;;;;;;4934282;29;20054;-80
2021/09/22 10:26:56;;;;;;;5.70;5.10;;;28.20;39.70;;;;;;4937731;29;20800;-82
2021/09/22 10:29:23;;;;;;;5.68;5.03;;;28.20;39.90;;;;;;4953301;29;20026;-82
2021/09/22 10:31:49;;;;;;;6.30;5.50;;;28.20;38.90;;;;;;4953125;29;20540;-83
2021/09/22 10:34:30;;;;;;;6.10;5.50;;;28.00;38.90;;;;;;4954187;28;20132;-83
2021/09/22 10:36:56;;;;;;;5.00;4.57;;;27.90;39.80;;;;;;4956430;29;20031;-83
2021/09/22 10:39:42;;;;;;;6.93;5.53;;;27.80;37.80;;;;;;4956410;29;20039;-81
2021/09/22 10:42:29;;;;;;;5.15;4.65;;;27.40;37.40;;;;;;4943413;29;20023;-82
2021/09/22 10:45:14;;;;;;;5.47;4.97;;;26.80;37.40;;;;;;4941786;29;20103;-82
2021/09/22 10:47:40;;;;;;;5.38;4.78;;;27.00;39.90;;;;;;4956420;29;20504;-79
2021/09/22 10:50:07;;;;;;;5.30;4.78;;;27.10;37.70;;;;;;4956226;29;20035;-83
2021/09/22 10:52:36;;;;;;;4.50;4.10;;;27.10;38.20;;;;;;4956098;29;20036;-81
2021/09/22 10:55:08;;;;;;;5.80;4.45;;;27.30;38.50;;;;;;4939348;29;20067;-82
2021/09/22 10:57:34;;;;;;;5.93;5.25;;;27.80;37.80;;;;;;4946918;29;20046;-83
2021/09/22 11:00:37;;;;;;;4.57;4.15;;;27.70;36.60;;;;;;4955952;29;20027;-79
2021/09/22 11:03:03;;;;;;;4.53;4.13;;;27.90;39.70;;;;;;4924833;29;20023;-80
2021/09/22 11:05:28;;;;;;;4.32;3.92;;;28.60;38.00;;;;;;4955865;29;20098;-80
2021/09/22 11:07:58;;;;;;;4.50;4.10;;;29.30;38.40;;;;;;4956235;29;20031;-80
2021/09/22 11:10:49;;;;;;;6.05;5.45;;;29.70;36.30;;;;;;4955646;29;20031;-81
2021/09/22 11:13:26;;;;;;;5.20;4.70;;;29.50;34.50;;;;;;4955570;29;20480;-81
2021/09/22 11:15:53;;;;;;;4.70;4.30;;;29.00;34.20;;;;;;4955705;29;20019;-78
2021/09/22 11:18:21;;;;;;;4.07;3.78;;;28.60;35.30;;;;;;4955296;29;20043;-80
2021/09/22 11:20:54;;;;;;;4.28;3.88;;;29.20;36.70;;;;;;4949754;29;20038;-79
2021/09/22 11:23:21;;;;;;;4.25;3.85;;;29.50;35.20;;;;;;4938692;29;20031;-80
2021/09/22 11:25:46;;;;;;;3.80;3.50;;;29.40;34.90;;;;;;4944294;29;20036;-77
2021/09/22 11:28:12;;;;;;;4.20;3.90;;;29.70;35.10;;;;;;4950680;29;20527;-80
2021/09/22 11:30:40;;;;;;;5.15;4.75;;;30.40;35.70;;;;;;4955135;29;20042;-80
2021/09/22 11:33:05;;;;;;;4.18;3.78;;;30.20;32.30;;;;;;4955013;29;20062;-79
2021/09/22 11:35:31;;;;;;;4.40;4.00;;;30.20;33.00;;;;;;4954874;29;20672;-80
2021/09/22 11:37:59;;;;;;;4.07;3.72;;;30.30;33.90;;;;;;4951686;29;20428;-80
2021/09/22 11:40:35;;;;;;;4.88;4.43;;;30.90;33.40;;;;;;4945220;29;20152;-80
2021/09/22 11:43:13;;;;;;;4.07;3.78;;;31.40;32.80;;;;;;4944499;29;20054;-80
2021/09/22 11:45:51;;;;;;;3.55;3.33;;;31.70;32.40;;;;;;4953903;28;20027;-81
2021/09/22 11:48:28;;;;;;;3.85;3.55;;;32.10;31.00;;;;;;4943202;29;20027;-81
2021/09/22 11:50:55;;;;;;;3.63;3.33;;;32.60;30.40;;;;;;4940113;29;20023;-81
2021/09/22 11:53:23;;;;;;;3.28;3.08;;;34.20;29.60;;;;;;4955638;29;20035;-81
2021/09/22 11:55:50;;;;;;;3.25;3.03;;;35.40;28.60;;;;;;4937655;29;20027;-81
2021/09/22 11:58:23;;;;;;;3.20;2.92;;;37.10;26.80;;;;;;4954125;29;20053;-81
2021/09/22 12:00:50;;;;;;;2.97;2.78;;;38.20;25.70;;;;;;4906394;29;20118;-81
2021/09/22 12:03:19;;;;;;;4.93;3.25;;;39.00;24.30;;;;;;4878804;29;20066;-81
2021/09/22 12:05:44;;;;;;;3.80;3.50;;;39.70;22.00;;;;;;4864204;29;20119;-82
2021/09/22 12:08:12;;;;;;;3.40;2.83;;;40.10;21.70;;;;;;4881088;29;20042;-82
2021/09/22 12:10:43;;;;;;;3.00;2.80;;;40.40;21.50;;;;;;4917634;29;20123;-82
2021/09/22 12:13:09;;;;;;;3.33;3.00;;;40.80;20.80;;;;;;4949157;29;20023;-81
2021/09/22 12:15:36;;;;;;;3.30;3.00;;;41.10;19.60;;;;;;4954358;29;20035;-82
2021/09/22 12:18:02;;;;;;;3.22;2.92;;;41.20;20.90;;;;;;4937168;29;20396;-79
2021/09/22 12:20:30;;;;;;;3.47;3.17;;;41.80;20.90;;;;;;4954406;29;20491;-79
2021/09/22 12:23:08;;;;;;;2.97;2.78;;;42.10;19.60;;;;;;4931182;29;20492;-80
2021/09/22 12:25:35;;;;;;;3.40;3.10;;;41.80;19.90;;;;;;4932426;29;20030;-82
2021/09/22 12:28:02;;;;;;;3.35;3.03;;;41.80;20.20;;;;;;4946723;29;20047;-80
2021/09/22 12:30:38;;;;;;;3.75;2.83;;;42.50;20.20;;;;;;4872814;29;20027;-81
2021/09/22 12:33:09;;;;;;;3.55;3.22;;;39.80;17.70;;;;;;4887788;29;20047;-81
2021/09/22 12:35:42;;;;;;;3.80;3.03;;;36.90;19.90;;;;;;4880470;29;20099;-80
2021/09/22 12:38:14;;;;;;;7.15;3.25;;;34.50;22.30;;;;;;4864595;29;20237;-80
2021/09/22 12:40:50;;;;;;;4.05;3.50;;;32.70;24.50;;;;;;4901568;29;20103;-81
2021/09/22 12:43:23;;;;;;;3.83;3.53;;;32.00;28.60;;;;;;4879574;29;20539;-81
2021/09/22 12:45:49;;;;;;;3.30;3.00;;;35.30;27.90;;;;;;4896781;29;20035;-82